Jordan, MT

2:32 AM MDT on October 02, 2014 (GMT -0600)
Wokal-Glasgow International | Change Station
CLOSE
Current Station
Airport
Location: Glasgow,
Elevation: 2293 ft
Nearby Weather Stations
Active Advisory: Lake Wind Advisory

Elev 2293 ft 48.21 °N, 106.62 °W | Updated 39 minutes ago

Partly Cloudy
Partly Cloudy
48 °F
Feels Like 48 °F
N
9
Wind Variable Wind from WSW

Today
High -- | Low -- °F
--% Chance of Precip.
Yesterday
High -- | Low -- °F
Precip. -- in
7:07 AM 6:44 PM
First Quarter, 56% visible
Pressure 29.85 in
Visibility 10.0 miles
Clouds Mostly Cloudy 10000 ft
Dew Point 38 °F
Humidity 68%
Rainfall 0.00 in
Snow Depth Not available.
UV 0 out of 12
Pollen .90 out of 12
Air Quality Not available.
Flu Activity Not available.
METAR KGGW 020753Z AUTO 25008KT 10SM BKN100 09/03 A2983 RMK AO2 SLP106 T00890033

More Conditions Fewer Conditions

Pressure 29.85 in
Visibility 10.0 miles
Clouds Mostly Cloudy 10000 ft
Dew Point 38 °F
Humidity 68%
Rainfall 0.00 in
Snow Depth Not available.
UV 0 out of 12
Pollen .90 out of 12
Air Quality Not available.
Flu Activity Not available.
METAR KGGW 020753Z AUTO 25008KT 10SM BKN100 09/03 A2983 RMK AO2 SLP106 T00890033

More Conditions Fewer Conditions

10-Day Weather Forecast

Almanac

Astronomy

Oct. 02, 2014 Rise Set
Actual Time 7:07 AM MDT 6:44 PM MDT
Civil Twilight 6:36 AM MDT 7:15 PM MDT
Nautical Twilight 6:01 AM MDT 7:50 PM MDT
Astronomical Twilight 5:24 AM MDT 8:26 PM MDT
Moon 3:14 PM MDT 12:04 AM MDT
Length of Visible Light 12h 38m
Length of Day
11h 36m
Tomorrow will be 3m 23s shorter.
First Quarter, 56% of the Moon is Illuminated
Today
First Quarter
Oct 8
Full
Oct 15
Last Quarter
Oct 23
New
Oct 30
First Quarter

Today's Extremes

State Highs State Lows

Community

WunderPhotos

Upload Photos

1,758,196 photos uploaded!

WunderBlogs® & News

By Dr. Jeff Masters
Director of Meteorology, Weather Underground
By Kari Strenfel
Meteorologist, Weather Underground
By Christopher C. Burt
Weather Historian, Weather Underground
October 2, 2014
October 2, 2014
October 2, 2014

Nearby

Snow Depth

Station Depth Elevation
Brackett Creek 1 in 7320 ft
White Mill 0 in 8700 ft
Calvert Creek 0 in 6430 ft
Copper Bottom 0 in 5200 ft
West Yellowstone 0 in 6700 ft

Earthquake Activity

City Distance Mag. Time & Date
No recent earthquake activity has been reported nearby.
Minimum magnitude displayed is 2.5.

Coastal Water Temperatures

Place Temperature
No Stations Reporting

Nearby Weather Stations